SVBS

Details ICAO SVBS (MYC)
Name MARISCAL SUCRE
Region Venezuela
Timezone America/Caracas (UTC-4.0)
Plans Departing 3
Arriving 2
Stats Elevation 1,338 ft / 408 m (AMSL)
Location 10.249892° -67.651275°
Runways 2
Magnetic Variation 11.946° W
Sunrise 2018-05-25 10:09:28 UTC / 2018-05-25 06:09:28 Local
Sunset 2018-05-25 22:48:32 UTC / 2018-05-25 18:48:32 Local
Advertisement - Login to hide

Runways

ID Width Length Bearing (true) Bearing (mag) Surface Threshold Offset Overrun Length
05 131 ft / 40 m 4,480 ft / 1,365 m 50.55° 62.50° Asphalt 0 ft / 0 m 0 ft / 0 m
10 131 ft / 40 m 6,841 ft / 2,085 m 104.62° 116.57° Asphalt 0 ft / 0 m 0 ft / 0 m
23 131 ft / 40 m 4,480 ft / 1,365 m 230.55° 242.50° Asphalt 0 ft / 0 m 0 ft / 0 m
28 131 ft / 40 m 6,841 ft / 2,085 m 284.63° 296.58° Asphalt 0 ft / 0 m 0 ft / 0 m

Map

Weather


0- 5 10 15 20 25 30 35+ Temperature / ° C

Clouds and Precipitation
Forecast for 2018-05-25 12:00 UTC. Updated 6 hours ago

Ground ~20,000 ft ~40,000 ft Winds

METAR

SVBS 251600Z 27005KT 9999 BKN013 29/20 Q1017

TAF

Not found

Frequencies

Recorded 127.60 MHz ATIS
Tower 118.05 MHz TWR
Ground 121.70 MHz GND
Warning: Do not use this data for real-world aviation or navigation. No guarantee of current accuracy is given.